sensor_id;sensor_type;location;lat;lon;timestamp;pressure;altitude;pressure_sealevel;temperature;humidity
68656;BME280;55638;51.122;13.606;2024-03-17T00:00:49;100840.19;;;4.04;55.54
68656;BME280;55638;51.122;13.606;2024-03-17T00:02:20;100839.31;;;4.04;55.45
68656;BME280;55638;51.122;13.606;2024-03-17T00:03:51;100842.91;;;4.03;55.48
68656;BME280;55638;51.122;13.606;2024-03-17T00:05:22;100844.81;;;4.01;55.46
68656;BME280;55638;51.122;13.606;2024-03-17T00:06:53;100847.47;;;4.01;55.36
68656;BME280;55638;51.122;13.606;2024-03-17T00:08:24;100844.84;;;3.99;55.50
68656;BME280;55638;51.122;13.606;2024-03-17T00:09:55;100851.19;;;3.97;55.32
68656;BME280;55638;51.122;13.606;2024-03-17T00:11:26;100843.31;;;3.94;55.35
68656;BME280;55638;51.122;13.606;2024-03-17T00:12:56;100850.59;;;3.90;55.46
68656;BME280;55638;51.122;13.606;2024-03-17T00:14:28;100850.72;;;3.87;55.26
68656;BME280;55638;51.122;13.606;2024-03-17T00:15:59;100847.34;;;3.83;55.26
68656;BME280;55638;51.122;13.606;2024-03-17T00:17:30;100848.28;;;3.82;55.41
68656;BME280;55638;51.122;13.606;2024-03-17T00:19:01;100842.16;;;3.80;55.43
68656;BME280;55638;51.122;13.606;2024-03-17T00:20:31;100839.69;;;3.76;55.46
68656;BME280;55638;51.122;13.606;2024-03-17T00:22:02;100842.59;;;3.71;55.19
68656;BME280;55638;51.122;13.606;2024-03-17T00:23:33;100843.50;;;3.70;55.40
68656;BME280;55638;51.122;13.606;2024-03-17T00:25:08;100852.56;;;3.66;55.29
68656;BME280;55638;51.122;13.606;2024-03-17T00:26:39;100845.69;;;3.60;55.50
68656;BME280;55638;51.122;13.606;2024-03-17T00:28:09;100837.06;;;3.55;55.41
68656;BME280;55638;51.122;13.606;2024-03-17T00:29:42;100841.66;;;3.52;55.41
68656;BME280;55638;51.122;13.606;2024-03-17T00:31:13;100844.47;;;3.49;55.47
68656;BME280;55638;51.122;13.606;2024-03-17T00:32:45;100838.41;;;3.45;55.65
68656;BME280;55638;51.122;13.606;2024-03-17T00:34:15;100845.63;;;3.41;55.81
68656;BME280;55638;51.122;13.606;2024-03-17T00:35:46;100840.47;;;3.37;55.63
68656;BME280;55638;51.122;13.606;2024-03-17T00:37:17;100846.88;;;3.33;55.89
68656;BME280;55638;51.122;13.606;2024-03-17T00:38:48;100853.22;;;3.30;55.99
68656;BME280;55638;51.122;13.606;2024-03-17T00:40:19;100848.88;;;3.28;55.93
68656;BME280;55638;51.122;13.606;2024-03-17T00:41:50;100852.53;;;3.25;56.09
68656;BME280;55638;51.122;13.606;2024-03-17T00:43:21;100847.31;;;3.22;55.95
68656;BME280;55638;51.122;13.606;2024-03-17T00:44:52;100847.41;;;3.20;56.16
68656;BME280;55638;51.122;13.606;2024-03-17T00:46:22;100850.16;;;3.19;56.03
68656;BME280;55638;51.122;13.606;2024-03-17T00:47:54;100850.19;;;3.17;56.17
68656;BME280;55638;51.122;13.606;2024-03-17T00:49:25;100847.59;;;3.16;56.12
68656;BME280;55638;51.122;13.606;2024-03-17T00:50:56;100841.47;;;3.14;56.15
68656;BME280;55638;51.122;13.606;2024-03-17T00:52:27;100848.66;;;3.12;56.20
68656;BME280;55638;51.122;13.606;2024-03-17T00:53:58;100848.72;;;3.10;56.14
68656;BME280;55638;51.122;13.606;2024-03-17T00:55:29;100845.25;;;3.08;56.11
68656;BME280;55638;51.122;13.606;2024-03-17T00:57:00;100843.56;;;3.06;56.12
68656;BME280;55638;51.122;13.606;2024-03-17T00:58:30;100841.06;;;3.03;56.15
68656;BME280;55638;51.122;13.606;2024-03-17T01:00:01;100846.44;;;3.01;56.26
68656;BME280;55638;51.122;13.606;2024-03-17T01:01:32;100850.09;;;2.99;56.15
68656;BME280;55638;51.122;13.606;2024-03-17T01:03:03;100852.03;;;2.95;56.09
68656;BME280;55638;51.122;13.606;2024-03-17T01:04:34;100845.91;;;2.93;56.28
68656;BME280;55638;51.122;13.606;2024-03-17T01:06:05;100846.94;;;2.89;56.24
68656;BME280;55638;51.122;13.606;2024-03-17T01:07:36;100847.03;;;2.87;56.39
68656;BME280;55638;51.122;13.606;2024-03-17T01:09:07;100854.28;;;2.84;56.46
68656;BME280;55638;51.122;13.606;2024-03-17T01:10:42;100851.72;;;2.81;56.50
68656;BME280;55638;51.122;13.606;2024-03-17T01:12:13;100850.09;;;2.77;56.65
68656;BME280;55638;51.122;13.606;2024-03-17T01:13:45;100846.56;;;2.76;56.53
68656;BME280;55638;51.122;13.606;2024-03-17T01:15:16;100849.34;;;2.73;56.52
68656;BME280;55638;51.122;13.606;2024-03-17T01:16:47;100845.03;;;2.70;56.52
68656;BME280;55638;51.122;13.606;2024-03-17T01:18:18;100846.91;;;2.68;56.62
68656;BME280;55638;51.122;13.606;2024-03-17T01:19:49;100847.88;;;2.66;56.55
68656;BME280;55638;51.122;13.606;2024-03-17T01:21:20;100841.81;;;2.62;56.62
68656;BME280;55638;51.122;13.606;2024-03-17T01:22:50;100842.78;;;2.60;56.68
68656;BME280;55638;51.122;13.606;2024-03-17T01:24:21;100845.56;;;2.57;56.81
68656;BME280;55638;51.122;13.606;2024-03-17T01:25:52;100851.03;;;2.54;56.79
68656;BME280;55638;51.122;13.606;2024-03-17T01:27:26;100856.41;;;2.52;56.60
68656;BME280;55638;51.122;13.606;2024-03-17T01:28:56;100847.63;;;2.50;56.92
68656;BME280;55638;51.122;13.606;2024-03-17T01:30:27;100852.16;;;2.48;57.05
68656;BME280;55638;51.122;13.606;2024-03-17T01:31:58;100852.28;;;2.45;56.85
68656;BME280;55638;51.122;13.606;2024-03-17T01:33:29;100851.44;;;2.43;57.09
68656;BME280;55638;51.122;13.606;2024-03-17T01:34:59;100850.63;;;2.41;56.89
68656;BME280;55638;51.122;13.606;2024-03-17T01:36:30;100854.31;;;2.38;56.90
68656;BME280;55638;51.122;13.606;2024-03-17T01:38:01;100847.22;;;2.37;56.89
68656;BME280;55638;51.122;13.606;2024-03-17T01:39:31;100849.09;;;2.35;57.08
68656;BME280;55638;51.122;13.606;2024-03-17T01:41:02;100848.34;;;2.32;57.17
68656;BME280;55638;51.122;13.606;2024-03-17T01:42:38;100852.84;;;2.30;57.21
68656;BME280;55638;51.122;13.606;2024-03-17T01:44:22;100856.59;;;2.24;57.28
68656;BME280;55638;51.122;13.606;2024-03-17T01:45:53;100854.88;;;2.23;57.08
68656;BME280;55638;51.122;13.606;2024-03-17T01:47:24;100848.75;;;2.21;56.91
68656;BME280;55638;51.122;13.606;2024-03-17T01:48:56;100850.66;;;2.17;57.09
68656;BME280;55638;51.122;13.606;2024-03-17T01:50:35;100851.72;;;2.13;57.65
68656;BME280;55638;51.122;13.606;2024-03-17T01:52:07;100850.03;;;2.11;57.40
68656;BME280;55638;51.122;13.606;2024-03-17T01:53:39;100846.56;;;2.09;57.63
68656;BME280;55638;51.122;13.606;2024-03-17T01:55:09;100858.19;;;2.06;57.69
68656;BME280;55638;51.122;13.606;2024-03-17T01:56:41;100851.13;;;2.05;57.62
68656;BME280;55638;51.122;13.606;2024-03-17T01:58:12;100852.13;;;2.02;57.92
68656;BME280;55638;51.122;13.606;2024-03-17T01:59:43;100850.38;;;2.01;57.76
68656;BME280;55638;51.122;13.606;2024-03-17T02:01:14;100853.97;;;2.00;57.98
68656;BME280;55638;51.122;13.606;2024-03-17T02:02:45;100845.03;;;2.01;58.04
68656;BME280;55638;51.122;13.606;2024-03-17T02:04:16;100855.69;;;2.01;57.84
68656;BME280;55638;51.122;13.606;2024-03-17T02:05:48;100853.84;;;2.03;57.88
68656;BME280;55638;51.122;13.606;2024-03-17T02:07:19;100867.22;;;2.02;58.11
68656;BME280;55638;51.122;13.606;2024-03-17T02:08:51;100853.84;;;2.03;57.90
68656;BME280;55638;51.122;13.606;2024-03-17T02:10:22;100861.75;;;2.05;58.07
68656;BME280;55638;51.122;13.606;2024-03-17T02:11:53;100854.72;;;2.04;58.33
68656;BME280;55638;51.122;13.606;2024-03-17T02:13:24;100861.75;;;2.05;58.25
68656;BME280;55638;51.122;13.606;2024-03-17T02:14:54;100859.06;;;2.07;58.39
68656;BME280;55638;51.122;13.606;2024-03-17T02:16:25;100852.75;;;2.09;58.46
68656;BME280;55638;51.122;13.606;2024-03-17T02:17:56;100848.31;;;2.10;58.41
68656;BME280;55638;51.122;13.606;2024-03-17T02:19:27;100856.22;;;2.11;58.66
68656;BME280;55638;51.122;13.606;2024-03-17T02:20:58;100861.38;;;2.16;58.25
68656;BME280;55638;51.122;13.606;2024-03-17T02:22:32;100859.56;;;2.16;58.24
68656;BME280;55638;51.122;13.606;2024-03-17T02:24:02;100850.66;;;2.17;58.35
68656;BME280;55638;51.122;13.606;2024-03-17T02:25:33;100848.81;;;2.19;58.27
68656;BME280;55638;51.122;13.606;2024-03-17T02:27:04;100849.69;;;2.20;58.07
68656;BME280;55638;51.122;13.606;2024-03-17T02:28:41;100845.22;;;2.20;58.41
68656;BME280;55638;51.122;13.606;2024-03-17T02:30:13;100845.22;;;2.20;58.34
68656;BME280;55638;51.122;13.606;2024-03-17T02:31:43;100838.06;;;2.22;58.25
68656;BME280;55638;51.122;13.606;2024-03-17T02:33:14;100841.66;;;2.21;58.24
68656;BME280;55638;51.122;13.606;2024-03-17T02:34:45;100833.69;;;2.21;58.10
68656;BME280;55638;51.122;13.606;2024-03-17T02:36:15;100842.53;;;2.22;58.27
68656;BME280;55638;51.122;13.606;2024-03-17T02:37:47;100844.25;;;2.23;58.22
68656;BME280;55638;51.122;13.606;2024-03-17T02:39:18;100835.41;;;2.22;58.17
68656;BME280;55638;51.122;13.606;2024-03-17T02:41:09;100842.53;;;2.22;58.27
68656;BME280;55638;51.122;13.606;2024-03-17T02:42:39;100836.38;;;2.20;58.16
68656;BME280;55638;51.122;13.606;2024-03-17T02:44:12;100839.91;;;2.20;57.93
68656;BME280;55638;51.122;13.606;2024-03-17T02:45:46;100838.22;;;2.18;58.03
68656;BME280;55638;51.122;13.606;2024-03-17T02:47:17;100842.69;;;2.17;57.97
68656;BME280;55638;51.122;13.606;2024-03-17T02:48:52;100840.13;;;2.14;58.08
68656;BME280;55638;51.122;13.606;2024-03-17T02:50:23;100839.28;;;2.14;57.81
68656;BME280;55638;51.122;13.606;2024-03-17T02:51:54;100843.81;;;2.12;57.98
68656;BME280;55638;51.122;13.606;2024-03-17T02:53:25;100842.03;;;2.11;57.99
68656;BME280;55638;51.122;13.606;2024-03-17T02:54:56;100847.47;;;2.08;57.80
68656;BME280;55638;51.122;13.606;2024-03-17T02:56:26;100840.44;;;2.07;58.07
68656;BME280;55638;51.122;13.606;2024-03-17T02:57:57;100842.28;;;2.05;58.01
68656;BME280;55638;51.122;13.606;2024-03-17T02:59:28;100838.81;;;2.02;58.13
68656;BME280;55638;51.122;13.606;2024-03-17T03:00:59;100843.31;;;2.00;58.09
68656;BME280;55638;51.122;13.606;2024-03-17T03:02:29;100847.81;;;1.98;58.07
68656;BME280;55638;51.122;13.606;2024-03-17T03:04:00;100840.78;;;1.97;58.09
68656;BME280;55638;51.122;13.606;2024-03-17T03:05:31;100844.41;;;1.95;57.96
68656;BME280;55638;51.122;13.606;2024-03-17T03:07:01;100852.47;;;1.93;58.07
68656;BME280;55638;51.122;13.606;2024-03-17T03:08:32;100848.13;;;1.91;58.20
68656;BME280;55638;51.122;13.606;2024-03-17T03:10:04;100849.06;;;1.90;58.00
68656;BME280;55638;51.122;13.606;2024-03-17T03:11:35;100850.97;;;1.86;58.13
68656;BME280;55638;51.122;13.606;2024-03-17T03:13:06;100856.31;;;1.85;58.28
68656;BME280;55638;51.122;13.606;2024-03-17T03:14:37;100847.56;;;1.83;58.33
68656;BME280;55638;51.122;13.606;2024-03-17T03:16:10;100847.59;;;1.81;58.42
68656;BME280;55638;51.122;13.606;2024-03-17T03:17:41;100850.31;;;1.79;58.12
68656;BME280;55638;51.122;13.606;2024-03-17T03:19:12;100851.28;;;1.77;58.15
68656;BME280;55638;51.122;13.606;2024-03-17T03:20:42;100846.94;;;1.74;58.17
68656;BME280;55638;51.122;13.606;2024-03-17T03:22:14;100851.44;;;1.72;58.31
68656;BME280;55638;51.122;13.606;2024-03-17T03:23:45;100849.72;;;1.71;58.15
68656;BME280;55638;51.122;13.606;2024-03-17T03:25:15;100848.03;;;1.69;58.27
68656;BME280;55638;51.122;13.606;2024-03-17T03:26:47;100846.38;;;1.66;58.29
68656;BME280;55638;51.122;13.606;2024-03-17T03:28:19;100843.75;;;1.65;58.19
68656;BME280;55638;51.122;13.606;2024-03-17T03:29:50;100851.84;;;1.62;58.48
68656;BME280;55638;51.122;13.606;2024-03-17T03:31:20;100850.09;;;1.61;58.65
68656;BME280;55638;51.122;13.606;2024-03-17T03:32:53;100846.59;;;1.60;58.75
68656;BME280;55638;51.122;13.606;2024-03-17T03:34:23;100843.97;;;1.59;58.69
68656;BME280;55638;51.122;13.606;2024-03-17T03:35:54;100840.53;;;1.57;58.90
68656;BME280;55638;51.122;13.606;2024-03-17T03:37:25;100837.88;;;1.57;59.07
68656;BME280;55638;51.122;13.606;2024-03-17T03:38:56;100844.78;;;1.61;58.74
68656;BME280;55638;51.122;13.606;2024-03-17T03:40:27;100841.19;;;1.62;58.96
68656;BME280;55638;51.122;13.606;2024-03-17T03:41:58;100835.97;;;1.60;59.50
68656;BME280;55638;51.122;13.606;2024-03-17T03:43:28;100838.44;;;1.65;59.55
68656;BME280;55638;51.122;13.606;2024-03-17T03:44:59;100842.81;;;1.66;59.90
68656;BME280;55638;51.122;13.606;2024-03-17T03:46:30;100841.81;;;1.70;59.78
68656;BME280;55638;51.122;13.606;2024-03-17T03:48:01;100846.09;;;1.74;59.77
68656;BME280;55638;51.122;13.606;2024-03-17T03:49:33;100848.56;;;1.78;59.97
68656;BME280;55638;51.122;13.606;2024-03-17T03:51:05;100851.94;;;1.84;60.12
68656;BME280;55638;51.122;13.606;2024-03-17T03:52:37;100853.50;;;1.89;60.09
68656;BME280;55638;51.122;13.606;2024-03-17T03:54:08;100853.41;;;1.92;60.06
68656;BME280;55638;51.122;13.606;2024-03-17T03:55:42;100852.22;;;1.99;60.25
68656;BME280;55638;51.122;13.606;2024-03-17T03:57:12;100852.91;;;2.05;60.16
68656;BME280;55638;51.122;13.606;2024-03-17T03:58:43;100852.75;;;2.09;60.13
68656;BME280;55638;51.122;13.606;2024-03-17T04:00:17;100847.13;;;2.17;60.07
68656;BME280;55638;51.122;13.606;2024-03-17T04:01:51;100847.84;;;2.22;60.18
68656;BME280;55638;51.122;13.606;2024-03-17T04:03:22;100852.03;;;2.28;60.14
68656;BME280;55638;51.122;13.606;2024-03-17T04:04:53;100850.94;;;2.33;59.96
68656;BME280;55638;51.122;13.606;2024-03-17T04:06:24;100859.63;;;2.38;60.00
68656;BME280;55638;51.122;13.606;2024-03-17T04:07:55;100853.25;;;2.42;59.95
68656;BME280;55638;51.122;13.606;2024-03-17T04:09:26;100852.19;;;2.46;59.83
68656;BME280;55638;51.122;13.606;2024-03-17T04:10:57;100853.81;;;2.50;59.80
68656;BME280;55638;51.122;13.606;2024-03-17T04:12:28;100854.56;;;2.54;59.68
68656;BME280;55638;51.122;13.606;2024-03-17T04:14:01;100843.72;;;2.59;59.74
68656;BME280;55638;51.122;13.606;2024-03-17T04:15:32;100848.00;;;2.63;59.69
68656;BME280;55638;51.122;13.606;2024-03-17T04:17:03;100858.47;;;2.67;59.62
68656;BME280;55638;51.122;13.606;2024-03-17T04:18:34;100850.28;;;2.72;59.60
68656;BME280;55638;51.122;13.606;2024-03-17T04:20:06;100856.34;;;2.76;59.65
68656;BME280;55638;51.122;13.606;2024-03-17T04:21:43;100852.63;;;2.80;59.39
68656;BME280;55638;51.122;13.606;2024-03-17T04:23:14;100855.13;;;2.84;59.54
68656;BME280;55638;51.122;13.606;2024-03-17T04:24:48;100856.72;;;2.88;59.47
68656;BME280;55638;51.122;13.606;2024-03-17T04:26:23;100856.59;;;2.91;59.52
68656;BME280;55638;51.122;13.606;2024-03-17T04:27:54;100863.50;;;2.97;59.28
68656;BME280;55638;51.122;13.606;2024-03-17T04:29:25;100864.22;;;3.01;59.40
68656;BME280;55638;51.122;13.606;2024-03-17T04:31:05;100865.03;;;3.03;59.21
68656;BME280;55638;51.122;13.606;2024-03-17T04:32:36;100866.56;;;3.08;59.23
68656;BME280;55638;51.122;13.606;2024-03-17T04:34:07;100859.31;;;3.12;59.15
68656;BME280;55638;51.122;13.606;2024-03-17T04:35:42;100860.94;;;3.16;59.08
68656;BME280;55638;51.122;13.606;2024-03-17T04:37:13;100861.72;;;3.18;58.90
68656;BME280;55638;51.122;13.606;2024-03-17T04:38:44;100858.06;;;3.20;58.88
68656;BME280;55638;51.122;13.606;2024-03-17T04:40:15;100861.47;;;3.24;58.66
68656;BME280;55638;51.122;13.606;2024-03-17T04:41:47;100864.06;;;3.26;58.73
68656;BME280;55638;51.122;13.606;2024-03-17T04:43:18;100850.66;;;3.27;58.50
68656;BME280;55638;51.122;13.606;2024-03-17T04:44:51;100855.94;;;3.29;58.56
68656;BME280;55638;51.122;13.606;2024-03-17T04:46:23;100854.06;;;3.31;58.41
68656;BME280;55638;51.122;13.606;2024-03-17T04:47:54;100857.59;;;3.31;58.48
68656;BME280;55638;51.122;13.606;2024-03-17T04:49:25;100854.06;;;3.31;58.32
68656;BME280;55638;51.122;13.606;2024-03-17T04:50:55;100856.69;;;3.32;58.33
68656;BME280;55638;51.122;13.606;2024-03-17T04:52:26;100860.22;;;3.33;58.47
68656;BME280;55638;51.122;13.606;2024-03-17T04:53:57;100855.78;;;3.32;58.40
68656;BME280;55638;51.122;13.606;2024-03-17T04:55:27;100857.53;;;3.33;58.26
68656;BME280;55638;51.122;13.606;2024-03-17T04:56:59;100862.00;;;3.32;58.32
68656;BME280;55638;51.122;13.606;2024-03-17T04:58:33;100864.56;;;3.35;58.14
68656;BME280;55638;51.122;13.606;2024-03-17T05:00:05;100865.41;;;3.36;58.33
68656;BME280;55638;51.122;13.606;2024-03-17T05:01:39;100858.28;;;3.36;58.48
68656;BME280;55638;51.122;13.606;2024-03-17T05:03:10;100864.47;;;3.37;58.48
68656;BME280;55638;51.122;13.606;2024-03-17T05:04:41;100870.66;;;3.37;58.56
68656;BME280;55638;51.122;13.606;2024-03-17T05:06:12;100872.44;;;3.38;58.42
68656;BME280;55638;51.122;13.606;2024-03-17T05:07:43;100870.66;;;3.39;58.38
68656;BME280;55638;51.122;13.606;2024-03-17T05:09:15;100882.94;;;3.41;58.39
68656;BME280;55638;51.122;13.606;2024-03-17T05:10:45;100871.38;;;3.42;58.53
68656;BME280;55638;51.122;13.606;2024-03-17T05:12:16;100875.72;;;3.45;58.35
68656;BME280;55638;51.122;13.606;2024-03-17T05:13:47;100881.91;;;3.46;58.46
68656;BME280;55638;51.122;13.606;2024-03-17T05:15:18;100880.97;;;3.47;58.56
68656;BME280;55638;51.122;13.606;2024-03-17T05:16:50;100882.56;;;3.51;58.16
68656;BME280;55638;51.122;13.606;2024-03-17T05:18:20;100881.66;;;3.52;58.32
68656;BME280;55638;51.122;13.606;2024-03-17T05:19:53;100886.97;;;3.52;58.46
68656;BME280;55638;51.122;13.606;2024-03-17T05:21:23;100884.22;;;3.53;58.43
68656;BME280;55638;51.122;13.606;2024-03-17T05:22:54;100882.38;;;3.55;58.30
68656;BME280;55638;51.122;13.606;2024-03-17T05:24:25;100878.78;;;3.56;58.16
68656;BME280;55638;51.122;13.606;2024-03-17T05:25:57;100881.34;;;3.58;58.32
68656;BME280;55638;51.122;13.606;2024-03-17T05:27:27;100883.13;;;3.59;58.39
68656;BME280;55638;51.122;13.606;2024-03-17T05:28:58;100884.78;;;3.61;58.12
68656;BME280;55638;51.122;13.606;2024-03-17T05:30:29;100885.66;;;3.62;58.09
68656;BME280;55638;51.122;13.606;2024-03-17T05:32:01;100887.38;;;3.63;58.12
68656;BME280;55638;51.122;13.606;2024-03-17T05:33:33;100897.97;;;3.64;58.29
68656;BME280;55638;51.122;13.606;2024-03-17T05:35:04;100891.63;;;3.67;58.28
68656;BME280;55638;51.122;13.606;2024-03-17T05:36:34;100896.97;;;3.67;58.12
68656;BME280;55638;51.122;13.606;2024-03-17T05:38:05;100902.16;;;3.70;58.09
68656;BME280;55638;51.122;13.606;2024-03-17T05:39:40;100900.34;;;3.71;58.09
68656;BME280;55638;51.122;13.606;2024-03-17T05:41:11;100901.16;;;3.73;58.16
68656;BME280;55638;51.122;13.606;2024-03-17T05:42:43;100901.13;;;3.74;58.17
68656;BME280;55638;51.122;13.606;2024-03-17T05:44:15;100894.84;;;3.75;58.00
68656;BME280;55638;51.122;13.606;2024-03-17T05:45:45;100899.19;;;3.78;58.17
68656;BME280;55638;51.122;13.606;2024-03-17T05:47:17;100900.03;;;3.78;58.03
68656;BME280;55638;51.122;13.606;2024-03-17T05:48:48;100897.28;;;3.80;58.04
68656;BME280;55638;51.122;13.606;2024-03-17T05:50:19;100907.91;;;3.81;58.11
68656;BME280;55638;51.122;13.606;2024-03-17T05:51:50;100898.91;;;3.84;58.10
68656;BME280;55638;51.122;13.606;2024-03-17T05:53:21;100906.81;;;3.85;58.10
68656;BME280;55638;51.122;13.606;2024-03-17T05:54:54;100908.50;;;3.88;58.03
68656;BME280;55638;51.122;13.606;2024-03-17T05:56:26;100900.50;;;3.88;57.95
68656;BME280;55638;51.122;13.606;2024-03-17T05:57:57;100906.63;;;3.90;58.01
68656;BME280;55638;51.122;13.606;2024-03-17T05:59:27;100910.94;;;3.93;57.95
68656;BME280;55638;51.122;13.606;2024-03-17T06:01:01;100904.66;;;3.94;57.87
68656;BME280;55638;51.122;13.606;2024-03-17T06:02:32;100913.47;;;3.96;57.99
68656;BME280;55638;51.122;13.606;2024-03-17T06:04:04;100916.97;;;3.98;57.92
68656;BME280;55638;51.122;13.606;2024-03-17T06:05:36;100911.63;;;3.98;57.84
68656;BME280;55638;51.122;13.606;2024-03-17T06:07:07;100915.06;;;4.00;58.01
68656;BME280;55638;51.122;13.606;2024-03-17T06:08:38;100920.28;;;4.03;58.05
68656;BME280;55638;51.122;13.606;2024-03-17T06:10:09;100914.94;;;4.03;58.05
68656;BME280;55638;51.122;13.606;2024-03-17T06:11:40;100921.09;;;4.05;57.85
68656;BME280;55638;51.122;13.606;2024-03-17T06:13:11;100922.81;;;4.06;57.93
68656;BME280;55638;51.122;13.606;2024-03-17T06:14:45;100923.63;;;4.08;57.96
68656;BME280;55638;51.122;13.606;2024-03-17T06:16:16;100924.44;;;4.10;57.64
68656;BME280;55638;51.122;13.606;2024-03-17T06:17:47;100922.63;;;4.10;57.62
68656;BME280;55638;51.122;13.606;2024-03-17T06:19:17;100927.00;;;4.11;57.46
68656;BME280;55638;51.122;13.606;2024-03-17T06:20:48;100926.16;;;4.11;57.42
68656;BME280;55638;51.122;13.606;2024-03-17T06:22:19;100931.53;;;4.09;57.17
68656;BME280;55638;51.122;13.606;2024-03-17T06:23:49;100938.69;;;4.09;57.20
68656;BME280;55638;51.122;13.606;2024-03-17T06:25:20;100937.91;;;4.07;57.14
68656;BME280;55638;51.122;13.606;2024-03-17T06:26:54;100935.38;;;4.04;57.08
68656;BME280;55638;51.122;13.606;2024-03-17T06:28:24;100939.03;;;4.01;56.79
68656;BME280;55638;51.122;13.606;2024-03-17T06:29:56;100929.44;;;3.97;57.02
68656;BME280;55638;51.122;13.606;2024-03-17T06:31:27;100934.00;;;3.94;57.05
68656;BME280;55638;51.122;13.606;2024-03-17T06:32:58;100934.22;;;3.89;57.08
68656;BME280;55638;51.122;13.606;2024-03-17T06:34:29;100934.31;;;3.87;57.14
68656;BME280;55638;51.122;13.606;2024-03-17T06:36:03;100935.34;;;3.83;57.01
68656;BME280;55638;51.122;13.606;2024-03-17T06:37:35;100936.38;;;3.81;57.20
68656;BME280;55638;51.122;13.606;2024-03-17T06:39:05;100933.84;;;3.78;57.33
68656;BME280;55638;51.122;13.606;2024-03-17T06:40:37;100934.75;;;3.77;57.32
68656;BME280;55638;51.122;13.606;2024-03-17T06:42:07;100941.97;;;3.75;57.31
68656;BME280;55638;51.122;13.606;2024-03-17T06:43:39;100940.16;;;3.75;57.59
68656;BME280;55638;51.122;13.606;2024-03-17T06:45:10;100942.88;;;3.74;57.57
68656;BME280;55638;51.122;13.606;2024-03-17T06:46:41;100948.31;;;3.72;57.71
68656;BME280;55638;51.122;13.606;2024-03-17T06:48:12;100944.69;;;3.73;58.07
68656;BME280;55638;51.122;13.606;2024-03-17T06:49:44;100944.69;;;3.73;58.05
68656;BME280;55638;51.122;13.606;2024-03-17T06:51:15;100944.69;;;3.73;58.07
68656;BME280;55638;51.122;13.606;2024-03-17T06:52:46;100935.91;;;3.71;57.79
68656;BME280;55638;51.122;13.606;2024-03-17T06:54:17;100937.41;;;3.77;58.16
68656;BME280;55638;51.122;13.606;2024-03-17T06:55:58;100946.28;;;3.77;57.86
68656;BME280;55638;51.122;13.606;2024-03-17T06:57:29;100947.06;;;3.81;58.19
68656;BME280;55638;51.122;13.606;2024-03-17T06:59:00;100946.03;;;3.83;58.33
68656;BME280;55638;51.122;13.606;2024-03-17T07:00:30;100943.22;;;3.86;58.44
68656;BME280;55638;51.122;13.606;2024-03-17T07:02:01;100945.75;;;3.89;58.61
68656;BME280;55638;51.122;13.606;2024-03-17T07:03:32;100956.16;;;3.96;58.70
68656;BME280;55638;51.122;13.606;2024-03-17T07:05:03;100955.91;;;4.02;58.70
68656;BME280;55638;51.122;13.606;2024-03-17T07:06:33;100954.78;;;4.07;58.71
68656;BME280;55638;51.122;13.606;2024-03-17T07:08:04;100954.56;;;4.12;58.50
68656;BME280;55638;51.122;13.606;2024-03-17T07:09:36;100953.34;;;4.19;58.64
68656;BME280;55638;51.122;13.606;2024-03-17T07:11:07;100953.06;;;4.25;58.37
68656;BME280;55638;51.122;13.606;2024-03-17T07:12:38;100954.59;;;4.31;58.42
68656;BME280;55638;51.122;13.606;2024-03-17T07:14:09;100962.38;;;4.35;57.76
68656;BME280;55638;51.122;13.606;2024-03-17T07:15:39;100961.97;;;4.45;58.09
68656;BME280;55638;51.122;13.606;2024-03-17T07:17:10;100960.03;;;4.48;57.96
68656;BME280;55638;51.122;13.606;2024-03-17T07:18:41;100963.38;;;4.53;57.75
68656;BME280;55638;51.122;13.606;2024-03-17T07:20:14;100965.81;;;4.58;57.76
68656;BME280;55638;51.122;13.606;2024-03-17T07:21:44;100960.28;;;4.63;57.79
68656;BME280;55638;51.122;13.606;2024-03-17T07:23:15;100965.47;;;4.66;57.71
68656;BME280;55638;51.122;13.606;2024-03-17T07:24:46;100956.38;;;4.70;57.65
68656;BME280;55638;51.122;13.606;2024-03-17T07:26:17;100960.63;;;4.74;57.60
68656;BME280;55638;51.122;13.606;2024-03-17T07:27:48;100964.97;;;4.76;57.61
68656;BME280;55638;51.122;13.606;2024-03-17T07:29:18;100967.41;;;4.81;57.29
68656;BME280;55638;51.122;13.606;2024-03-17T07:30:51;100962.78;;;4.84;57.46
68656;BME280;55638;51.122;13.606;2024-03-17T07:32:22;100965.25;;;4.89;57.10
68656;BME280;55638;51.122;13.606;2024-03-17T07:33:55;100970.47;;;4.92;57.14
68656;BME280;55638;51.122;13.606;2024-03-17T07:35:26;100965.84;;;4.96;57.23
68656;BME280;55638;51.122;13.606;2024-03-17T07:36:56;100968.34;;;4.99;57.04
68656;BME280;55638;51.122;13.606;2024-03-17T07:38:28;100970.88;;;5.02;56.89
68656;BME280;55638;51.122;13.606;2024-03-17T07:39:59;100973.41;;;5.05;56.86
68656;BME280;55638;51.122;13.606;2024-03-17T07:41:31;100971.50;;;5.07;56.64
68656;BME280;55638;51.122;13.606;2024-03-17T07:43:02;100975.78;;;5.11;56.51
68656;BME280;55638;51.122;13.606;2024-03-17T07:44:33;100972.22;;;5.11;56.05
68656;BME280;55638;51.122;13.606;2024-03-17T07:46:06;100969.25;;;5.17;56.45
68656;BME280;55638;51.122;13.606;2024-03-17T07:47:37;100969.19;;;5.18;56.58
68656;BME280;55638;51.122;13.606;2024-03-17T07:49:08;100974.47;;;5.20;56.43
68656;BME280;55638;51.122;13.606;2024-03-17T07:50:39;100975.25;;;5.22;56.28
68656;BME280;55638;51.122;13.606;2024-03-17T07:52:10;100978.78;;;5.22;56.29
68656;BME280;55638;51.122;13.606;2024-03-17T07:53:42;100970.63;;;5.25;56.15
68656;BME280;55638;51.122;13.606;2024-03-17T07:55:15;100966.13;;;5.27;56.32
68656;BME280;55638;51.122;13.606;2024-03-17T07:56:45;100972.19;;;5.31;56.05
68656;BME280;55638;51.122;13.606;2024-03-17T07:58:16;100976.56;;;5.32;56.39